Time;durP1;ratioP1;P1;durP2;ratioP2;P2;SDS_P1;SDS_P2;PMS_P1;PMS_P2;Temp;Humidity;BMP_temperature;BMP_pressure;BME280_temperature;BME280_humidity;BME280_pressure;Samples;Min_cycle;Max_cycle;Signal;HPM_P1;HPM_P2
2020/12/17 00:02:17;;;;;;;55.50;35.10;;;9.30;99.90;;;;;;4391063;32;20374;-72
2020/12/17 00:04:42;;;;;;;52.45;34.70;;;9.20;99.90;;;;;;4385019;32;20084;-73
2020/12/17 00:07:08;;;;;;;58.63;36.50;;;9.20;99.90;;;;;;4387702;32;20042;-73
2020/12/17 00:09:33;;;;;;;58.03;35.20;;;9.20;99.90;;;;;;4400926;32;20083;-72
2020/12/17 00:11:59;;;;;;;56.67;36.42;;;9.20;99.90;;;;;;4405963;32;20432;-72
2020/12/17 00:14:25;;;;;;;58.15;37.33;;;9.10;99.90;;;;;;4397873;32;20515;-72
2020/12/17 00:16:50;;;;;;;58.65;37.03;;;9.10;99.90;;;;;;4391007;32;20197;-72
2020/12/17 00:19:16;;;;;;;57.45;38.33;;;9.10;99.90;;;;;;4397438;32;20362;-73
2020/12/17 00:21:42;;;;;;;70.90;39.08;;;9.10;99.90;;;;;;4402829;32;20054;-71
2020/12/17 00:24:07;;;;;;;58.17;38.22;;;9.10;99.90;;;;;;4399028;32;20115;-73
2020/12/17 00:26:34;;;;;;;61.08;39.05;;;9.10;99.90;;;;;;4406162;32;20076;-72
2020/12/17 00:28:59;;;;;;;59.08;38.65;;;9.10;99.90;;;;;;4405938;32;20344;-72
2020/12/17 00:31:25;;;;;;;58.30;38.45;;;9.10;99.90;;;;;;4406050;32;20097;-72
2020/12/17 00:33:51;;;;;;;56.40;38.63;;;9.00;99.90;;;;;;4404041;32;20098;-72
2020/12/17 00:36:18;;;;;;;59.67;39.78;;;9.00;99.90;;;;;;4405653;32;20076;-72
2020/12/17 00:38:44;;;;;;;59.20;39.50;;;9.00;99.90;;;;;;4403926;32;20399;-73
2020/12/17 00:41:12;;;;;;;57.40;39.03;;;9.00;99.90;;;;;;4406137;32;20062;-72
2020/12/17 00:43:38;;;;;;;57.85;38.47;;;9.00;99.90;;;;;;4405653;32;20096;-72
2020/12/17 00:46:03;;;;;;;63.20;39.85;;;9.00;99.90;;;;;;4406683;32;20026;-72
2020/12/17 00:48:29;;;;;;;57.05;38.75;;;9.00;99.90;;;;;;4407081;32;20124;-72
2020/12/17 00:50:55;;;;;;;60.35;37.95;;;9.00;99.90;;;;;;4406617;32;20086;-72
2020/12/17 00:53:20;;;;;;;60.40;39.95;;;9.00;99.90;;;;;;4404098;32;20069;-72
2020/12/17 00:55:46;;;;;;;62.47;39.33;;;9.00;99.90;;;;;;4403011;32;20061;-72
2020/12/17 00:58:12;;;;;;;61.05;40.05;;;9.00;99.90;;;;;;4406544;32;20053;-73
2020/12/17 01:00:37;;;;;;;56.92;39.72;;;9.10;99.90;;;;;;4398994;32;20069;-72
2020/12/17 01:03:03;;;;;;;58.20;39.15;;;9.10;99.90;;;;;;4400085;32;20043;-73
2020/12/17 01:05:28;;;;;;;58.22;39.17;;;9.10;99.90;;;;;;4395784;32;20058;-73
2020/12/17 01:07:54;;;;;;;56.08;37.45;;;9.10;99.90;;;;;;4398744;32;20512;-73
2020/12/17 01:10:20;;;;;;;58.75;39.85;;;9.10;99.90;;;;;;4403269;32;20378;-72
2020/12/17 01:12:45;;;;;;;56.65;37.50;;;9.10;99.90;;;;;;4396641;32;20074;-72
2020/12/17 01:15:11;;;;;;;54.28;37.22;;;9.10;99.90;;;;;;4395932;32;20057;-73
2020/12/17 01:17:37;;;;;;;56.53;38.85;;;9.10;99.90;;;;;;4394782;32;20061;-73
2020/12/17 01:20:03;;;;;;;51.83;36.08;;;9.10;99.90;;;;;;4390228;32;20477;-73
2020/12/17 01:22:28;;;;;;;55.67;36.80;;;9.10;99.90;;;;;;4390804;32;20427;-73
2020/12/17 01:24:54;;;;;;;56.42;36.85;;;9.20;99.90;;;;;;4388657;32;20034;-72
2020/12/17 01:27:20;;;;;;;53.47;35.58;;;9.20;99.90;;;;;;4391130;32;20170;-72
2020/12/17 01:29:45;;;;;;;56.22;36.13;;;9.20;99.90;;;;;;4392509;32;20043;-72
2020/12/17 01:32:11;;;;;;;54.75;37.53;;;9.20;99.90;;;;;;4389798;32;20035;-72
2020/12/17 01:34:37;;;;;;;55.75;36.08;;;9.20;99.90;;;;;;4394627;32;20462;-73
2020/12/17 01:37:02;;;;;;;54.53;37.35;;;9.20;99.90;;;;;;4390386;32;20065;-73
2020/12/17 01:39:28;;;;;;;56.37;36.60;;;9.20;99.90;;;;;;4398961;32;20373;-72
2020/12/17 01:41:54;;;;;;;53.75;37.13;;;9.20;99.90;;;;;;4404033;32;20057;-72
2020/12/17 01:44:20;;;;;;;53.58;36.22;;;9.20;99.90;;;;;;4398548;32;20034;-72
2020/12/17 01:46:46;;;;;;;57.90;38.35;;;9.20;99.90;;;;;;4389312;32;20179;-73
2020/12/17 01:49:14;;;;;;;57.78;37.22;;;9.20;99.90;;;;;;4390039;32;20082;-73
2020/12/17 01:51:40;;;;;;;58.30;40.05;;;9.20;99.90;;;;;;4389728;32;20040;-73
2020/12/17 01:54:05;;;;;;;62.13;38.42;;;9.20;99.90;;;;;;4396002;32;20069;-73
2020/12/17 01:56:34;;;;;;;50.17;34.50;;;9.10;99.90;;;;;;4390703;32;20043;-71
2020/12/17 01:59:21;;;;;;;55.17;35.75;;;9.10;99.90;;;;;;4390351;32;20071;-72
2020/12/17 02:01:48;;;;;;;47.40;33.28;;;9.10;99.90;;;;;;4389812;32;20048;-73
2020/12/17 02:04:22;;;;;;;51.03;33.00;;;9.10;99.90;;;;;;4390823;32;20054;-72
2020/12/17 02:06:49;;;;;;;49.50;33.45;;;9.10;99.90;;;;;;4393019;32;20074;-72
2020/12/17 02:09:18;;;;;;;52.00;34.63;;;9.00;99.90;;;;;;4404380;32;20410;-72
2020/12/17 02:12:10;;;;;;;47.75;32.50;;;9.00;99.90;;;;;;4402420;32;20061;-73
2020/12/17 02:14:36;;;;;;;50.60;31.12;;;9.00;99.90;;;;;;4392712;32;20043;-72
2020/12/17 02:17:02;;;;;;;48.30;31.58;;;8.90;99.90;;;;;;4389799;32;20124;-72
2020/12/17 02:19:28;;;;;;;46.53;32.28;;;8.90;99.90;;;;;;4388646;32;20051;-72
2020/12/17 02:21:55;;;;;;;48.58;32.13;;;8.90;99.90;;;;;;4388814;32;20077;-72
2020/12/17 02:24:24;;;;;;;46.45;29.63;;;8.90;99.90;;;;;;4395914;32;20035;-73
2020/12/17 02:26:51;;;;;;;49.10;30.37;;;8.80;99.90;;;;;;4388476;32;20047;-72
2020/12/17 02:29:18;;;;;;;40.15;27.13;;;8.80;99.90;;;;;;4392402;32;20043;-73
2020/12/17 02:31:43;;;;;;;39.63;27.17;;;8.80;99.90;;;;;;4388270;32;20427;-72
2020/12/17 02:34:10;;;;;;;43.67;28.05;;;8.70;99.90;;;;;;4387190;32;20047;-72
2020/12/17 02:36:35;;;;;;;43.55;28.12;;;8.70;99.90;;;;;;4387007;32;20073;-72
2020/12/17 02:39:02;;;;;;;46.65;29.08;;;8.60;99.90;;;;;;4389368;32;20042;-72
2020/12/17 02:41:28;;;;;;;41.60;28.42;;;8.60;99.90;;;;;;4390393;32;20062;-73
2020/12/17 02:43:53;;;;;;;39.33;27.30;;;8.60;99.90;;;;;;4391258;32;20042;-73
2020/12/17 02:46:20;;;;;;;42.50;26.92;;;8.60;99.90;;;;;;4391873;32;20116;-72
2020/12/17 02:48:53;;;;;;;46.60;28.92;;;8.70;99.90;;;;;;4392273;32;20026;-72
2020/12/17 02:51:20;;;;;;;45.33;29.20;;;8.70;99.90;;;;;;4394136;32;20067;-72
2020/12/17 02:53:46;;;;;;;44.67;29.40;;;8.70;99.90;;;;;;4388283;32;20059;-73
2020/12/17 02:56:14;;;;;;;44.45;27.62;;;8.80;99.90;;;;;;4389722;32;20122;-73
2020/12/17 02:58:39;;;;;;;47.75;28.73;;;8.70;99.90;;;;;;4392764;32;20046;-72
2020/12/17 03:01:05;;;;;;;41.28;27.75;;;8.80;99.90;;;;;;4402696;32;20069;-72
2020/12/17 03:03:31;;;;;;;38.03;27.08;;;8.80;99.90;;;;;;4403664;32;20039;-72
2020/12/17 03:05:56;;;;;;;39.30;26.17;;;8.80;99.90;;;;;;4395702;32;20030;-72
2020/12/17 03:08:25;;;;;;;38.95;27.48;;;8.80;99.90;;;;;;4387806;32;20400;-72
2020/12/17 03:10:52;;;;;;;43.17;27.85;;;8.80;99.90;;;;;;4389634;32;20071;-72
2020/12/17 03:13:18;;;;;;;40.08;27.05;;;8.80;99.90;;;;;;4394249;32;20102;-72
2020/12/17 03:15:43;;;;;;;42.17;27.17;;;8.80;99.90;;;;;;4404253;32;20104;-72
2020/12/17 03:18:09;;;;;;;41.10;26.92;;;8.80;99.90;;;;;;4390858;32;20331;-72
2020/12/17 03:20:35;;;;;;;38.38;26.37;;;8.90;99.90;;;;;;4393799;32;20474;-72
2020/12/17 03:23:00;;;;;;;40.00;27.23;;;8.80;99.90;;;;;;4389649;32;20082;-72
2020/12/17 03:25:26;;;;;;;36.35;25.20;;;8.90;99.90;;;;;;4388157;32;20043;-72
2020/12/17 03:27:51;;;;;;;38.28;26.10;;;8.90;99.90;;;;;;4394083;32;20031;-72
2020/12/17 03:30:17;;;;;;;37.83;24.70;;;8.90;99.90;;;;;;4388200;32;20088;-72
2020/12/17 03:32:43;;;;;;;39.03;25.27;;;8.90;99.90;;;;;;4393269;32;20027;-72
2020/12/17 03:35:08;;;;;;;35.60;24.17;;;8.90;99.90;;;;;;4393712;32;20080;-72
2020/12/17 03:37:34;;;;;;;37.63;24.87;;;8.90;99.90;;;;;;4389528;32;20416;-72
2020/12/17 03:39:59;;;;;;;36.70;24.25;;;8.90;99.90;;;;;;4398735;32;20065;-72
2020/12/17 03:42:25;;;;;;;37.88;24.30;;;8.90;99.90;;;;;;4401917;32;20119;-72
2020/12/17 03:44:51;;;;;;;41.70;27.27;;;8.90;99.90;;;;;;4397804;32;20398;-72
2020/12/17 03:47:16;;;;;;;45.05;30.23;;;8.90;99.90;;;;;;4403115;32;20026;-72
2020/12/17 03:49:42;;;;;;;57.85;39.95;;;8.90;99.90;;;;;;4400438;32;20463;-72
2020/12/17 03:52:10;;;;;;;49.42;35.80;;;9.00;99.90;;;;;;4404636;32;20035;-72
2020/12/17 03:54:35;;;;;;;59.90;40.75;;;9.00;99.90;;;;;;4401473;32;20088;-72
2020/12/17 03:57:01;;;;;;;48.20;34.55;;;9.00;99.90;;;;;;4396896;32;20027;-71
2020/12/17 03:59:27;;;;;;;42.08;29.98;;;9.00;99.90;;;;;;4398387;32;20391;-72
2020/12/17 04:01:52;;;;;;;63.75;43.40;;;9.10;99.90;;;;;;4399951;32;20390;-73
2020/12/17 04:04:18;;;;;;;60.53;44.72;;;9.10;99.90;;;;;;4391037;32;20062;-73
2020/12/17 04:06:44;;;;;;;53.20;36.85;;;9.10;99.90;;;;;;4387999;32;20045;-73
2020/12/17 04:09:09;;;;;;;52.03;36.53;;;9.20;99.90;;;;;;4388295;32;20110;-71
2020/12/17 04:11:35;;;;;;;52.80;34.83;;;9.20;99.90;;;;;;4388962;32;20421;-72
2020/12/17 04:14:00;;;;;;;38.13;26.95;;;9.20;99.90;;;;;;4388317;32;20401;-72
2020/12/17 04:16:26;;;;;;;37.63;25.73;;;9.20;99.90;;;;;;4396376;32;20051;-73
2020/12/17 04:18:52;;;;;;;38.20;23.75;;;9.20;99.90;;;;;;4398098;32;20121;-73
2020/12/17 04:21:18;;;;;;;38.63;24.67;;;9.20;99.90;;;;;;4388391;32;20471;-73
2020/12/17 04:23:43;;;;;;;37.35;24.48;;;9.20;99.90;;;;;;4395273;32;20035;-73
2020/12/17 04:26:13;;;;;;;34.85;23.75;;;9.20;99.90;;;;;;4389279;32;20027;-72
2020/12/17 04:28:39;;;;;;;36.03;24.73;;;9.20;99.90;;;;;;4395956;32;20027;-73
2020/12/17 04:31:05;;;;;;;39.03;24.83;;;9.20;99.90;;;;;;4397956;32;20062;-72
2020/12/17 04:33:30;;;;;;;32.72;23.15;;;9.20;99.90;;;;;;4394936;32;20018;-73
2020/12/17 04:35:56;;;;;;;35.85;23.08;;;9.20;99.90;;;;;;4397933;32;20026;-73
2020/12/17 04:38:22;;;;;;;31.85;22.80;;;9.30;99.90;;;;;;4404509;32;20035;-72
2020/12/17 04:40:47;;;;;;;34.25;23.33;;;9.30;99.90;;;;;;4390096;32;20043;-73
2020/12/17 04:43:13;;;;;;;36.85;23.95;;;9.30;99.90;;;;;;4398986;32;20367;-73
2020/12/17 04:45:39;;;;;;;33.72;22.58;;;9.20;99.90;;;;;;4392370;32;20023;-72
2020/12/17 04:48:06;;;;;;;32.47;22.05;;;9.30;99.90;;;;;;4383552;32;20152;-72
2020/12/17 04:50:33;;;;;;;34.58;22.75;;;9.30;99.90;;;;;;4390274;32;20035;-72
2020/12/17 04:53:02;;;;;;;35.90;22.65;;;9.20;99.90;;;;;;4389559;32;20030;-72
2020/12/17 04:55:29;;;;;;;29.15;20.12;;;9.20;99.90;;;;;;4399799;32;20035;-72
2020/12/17 04:57:58;;;;;;;30.42;21.33;;;9.30;99.90;;;;;;4395466;32;20094;-73
2020/12/17 05:00:24;;;;;;;32.22;22.42;;;9.30;99.90;;;;;;4401623;32;20118;-72
2020/12/17 05:02:55;;;;;;;37.67;23.25;;;9.30;99.90;;;;;;4388503;32;20038;-72
2020/12/17 05:05:21;;;;;;;34.60;22.77;;;9.40;99.90;;;;;;4395201;32;20039;-73
2020/12/17 05:07:47;;;;;;;31.05;21.17;;;9.40;99.90;;;;;;4390549;32;20143;-72
2020/12/17 05:10:13;;;;;;;34.10;23.05;;;9.40;99.90;;;;;;4390253;32;20352;-73
2020/12/17 05:12:38;;;;;;;33.78;22.95;;;9.40;99.90;;;;;;4405780;32;20511;-73
2020/12/17 05:15:04;;;;;;;32.17;23.00;;;9.50;99.90;;;;;;4404647;32;20023;-71
2020/12/17 05:17:31;;;;;;;33.22;20.70;;;9.40;99.90;;;;;;4391272;32;20119;-73
2020/12/17 05:19:57;;;;;;;31.70;21.83;;;9.40;99.90;;;;;;4399994;32;20071;-72
2020/12/17 05:22:24;;;;;;;30.45;21.12;;;9.40;99.90;;;;;;4396288;32;20042;-73
2020/12/17 05:24:50;;;;;;;33.10;21.52;;;9.40;99.90;;;;;;4393823;32;20068;-73
2020/12/17 05:27:15;;;;;;;29.80;20.50;;;9.40;99.90;;;;;;4397202;32;20091;-73
2020/12/17 05:29:42;;;;;;;37.35;22.50;;;9.40;99.90;;;;;;4397953;32;20089;-72
2020/12/17 05:32:10;;;;;;;29.00;21.15;;;9.40;99.90;;;;;;4391480;32;20042;-72
2020/12/17 05:34:37;;;;;;;37.03;22.20;;;9.40;99.90;;;;;;4391796;32;20031;-72
2020/12/17 05:37:06;;;;;;;30.90;19.98;;;9.40;99.90;;;;;;4389714;32;20023;-73
2020/12/17 05:39:33;;;;;;;30.60;19.65;;;9.40;99.90;;;;;;4403668;32;20046;-73
2020/12/17 05:42:00;;;;;;;28.10;20.12;;;9.40;99.90;;;;;;4402715;32;20034;-72
2020/12/17 05:44:29;;;;;;;31.10;19.80;;;9.40;99.90;;;;;;4391566;32;20068;-73
2020/12/17 05:46:56;;;;;;;30.85;20.48;;;9.40;99.90;;;;;;4391033;32;20049;-72
2020/12/17 05:49:27;;;;;;;30.75;19.65;;;9.40;99.90;;;;;;4390719;32;20047;-72
2020/12/17 05:52:11;;;;;;;30.73;22.02;;;9.40;99.90;;;;;;4389698;32;20061;-72
2020/12/17 05:54:58;;;;;;;32.42;22.40;;;9.40;99.90;;;;;;4390413;32;20050;-71
2020/12/17 05:57:24;;;;;;;34.95;22.15;;;9.40;99.90;;;;;;4399301;32;20051;-71
2020/12/17 06:00:01;;;;;;;36.13;24.37;;;9.40;99.90;;;;;;4397712;32;20387;-72
2020/12/17 06:02:35;;;;;;;38.33;26.00;;;9.40;99.90;;;;;;4396716;32;20090;-73
2020/12/17 06:05:10;;;;;;;37.28;25.60;;;9.50;99.90;;;;;;4401854;32;20046;-73
2020/12/17 06:07:47;;;;;;;40.42;26.55;;;9.50;99.90;;;;;;4391888;32;20431;-73
2020/12/17 06:10:17;;;;;;;39.95;24.30;;;9.60;99.90;;;;;;4390751;32;20043;-71
2020/12/17 06:12:45;;;;;;;41.72;25.83;;;9.60;99.90;;;;;;4393630;32;20030;-70
2020/12/17 06:15:17;;;;;;;40.08;24.87;;;9.60;99.90;;;;;;4396619;32;20047;-73
2020/12/17 06:17:47;;;;;;;38.08;26.37;;;9.60;99.90;;;;;;4391321;32;20061;-71
2020/12/17 06:20:14;;;;;;;36.97;25.02;;;9.60;99.90;;;;;;4389769;32;20015;-71
2020/12/17 06:22:40;;;;;;;38.58;26.27;;;9.60;99.90;;;;;;4390635;32;20101;-73
2020/12/17 06:25:11;;;;;;;39.55;26.62;;;9.60;99.90;;;;;;4389089;32;20019;-71
2020/12/17 06:27:44;;;;;;;43.10;27.83;;;9.70;99.90;;;;;;4391871;32;20106;-71
2020/12/17 06:30:10;;;;;;;40.25;27.85;;;9.70;99.90;;;;;;4395042;32;20324;-70
2020/12/17 06:32:37;;;;;;;46.92;30.37;;;9.70;99.90;;;;;;4393360;32;20080;-70
2020/12/17 06:35:23;;;;;;;44.42;30.35;;;9.70;99.90;;;;;;4401799;32;20049;-71
2020/12/17 06:37:51;;;;;;;41.92;29.77;;;9.80;99.90;;;;;;4402460;32;20050;-71
2020/12/17 06:40:28;;;;;;;41.75;28.98;;;9.90;99.90;;;;;;4404007;32;20096;-73
2020/12/17 06:42:54;;;;;;;49.53;29.80;;;9.90;99.90;;;;;;4399449;32;20118;-71
2020/12/17 06:45:34;;;;;;;49.03;31.33;;;9.90;99.90;;;;;;4392663;32;20045;-71
2020/12/17 06:48:33;;;;;;;46.22;30.75;;;9.90;99.90;;;;;;4395511;32;20696;-73
2020/12/17 06:51:01;;;;;;;47.40;30.88;;;10.00;99.90;;;;;;4390723;32;20098;-71
2020/12/17 06:53:38;;;;;;;41.33;29.30;;;9.90;99.90;;;;;;4392827;32;20046;-73
2020/12/17 06:56:04;;;;;;;44.47;30.30;;;9.90;99.90;;;;;;4402448;32;20072;-73
2020/12/17 06:58:29;;;;;;;47.47;31.55;;;9.90;99.90;;;;;;4406283;32;20035;-71
2020/12/17 07:00:55;;;;;;;47.33;31.00;;;9.90;99.90;;;;;;4402535;32;20133;-72
2020/12/17 07:03:40;;;;;;;52.92;33.17;;;10.00;99.90;;;;;;4400780;32;20472;-71
2020/12/17 07:06:13;;;;;;;49.17;34.15;;;10.00;99.90;;;;;;4401169;32;20042;-72
2020/12/17 07:08:39;;;;;;;57.10;36.55;;;10.00;99.90;;;;;;4401244;32;20083;-73
2020/12/17 07:11:07;;;;;;;47.65;34.03;;;10.00;99.90;;;;;;4403188;32;20504;-71
2020/12/17 07:13:40;;;;;;;49.58;34.22;;;10.10;99.90;;;;;;4396112;32;20438;-70
2020/12/17 07:16:21;;;;;;;48.05;33.28;;;10.10;99.90;;;;;;4401040;32;20059;-70
2020/12/17 07:18:47;;;;;;;77.40;37.27;;;10.10;99.90;;;;;;4393356;32;20039;-71
2020/12/17 07:21:12;;;;;;;47.80;32.75;;;10.20;99.90;;;;;;4390828;32;20472;-73
2020/12/17 07:23:39;;;;;;;50.65;34.63;;;10.20;99.90;;;;;;4396471;32;20049;-71
2020/12/17 07:26:15;;;;;;;51.28;35.05;;;10.30;99.90;;;;;;4388513;32;20078;-71
2020/12/17 07:28:41;;;;;;;54.15;35.10;;;10.30;99.90;;;;;;4378103;32;20027;-70
2020/12/17 07:31:08;;;;;;;50.78;33.97;;;10.30;99.90;;;;;;4393395;32;20031;-71
2020/12/17 07:33:36;;;;;;;50.12;33.55;;;10.30;99.90;;;;;;4394047;32;20023;-71
2020/12/17 07:36:03;;;;;;;48.60;33.45;;;10.40;99.90;;;;;;4401134;32;20104;-71
2020/12/17 07:38:29;;;;;;;45.38;33.58;;;10.40;99.90;;;;;;4388614;32;20031;-71
2020/12/17 07:40:55;;;;;;;57.70;34.58;;;10.40;99.90;;;;;;4401632;32;20070;-71
2020/12/17 07:43:24;;;;;;;59.13;37.17;;;10.50;99.90;;;;;;4388753;32;20057;-71
2020/12/17 07:45:55;;;;;;;47.75;32.25;;;10.50;99.90;;;;;;4402799;32;20144;-71
2020/12/17 07:48:54;;;;;;;52.17;35.30;;;10.50;99.90;;;;;;4402358;32;20039;-71
2020/12/17 07:51:19;;;;;;;48.83;34.00;;;10.50;99.90;;;;;;4397830;32;20102;-71
2020/12/17 07:53:47;;;;;;;53.63;35.55;;;10.60;99.90;;;;;;4387100;32;20058;-71
2020/12/17 07:56:13;;;;;;;53.15;34.00;;;10.60;99.90;;;;;;4402260;32;20061;-72
2020/12/17 07:58:40;;;;;;;52.72;36.17;;;10.60;99.90;;;;;;4402237;32;20061;-70
2020/12/17 08:01:07;;;;;;;63.40;38.58;;;10.60;99.90;;;;;;4403426;32;20084;-70
2020/12/17 08:03:42;;;;;;;56.35;38.72;;;10.70;99.90;;;;;;4404704;32;20358;-71
2020/12/17 08:06:09;;;;;;;57.92;39.58;;;10.70;99.90;;;;;;4405153;32;20023;-72
2020/12/17 08:08:35;;;;;;;62.22;40.47;;;10.80;99.90;;;;;;4405535;32;20066;-71
2020/12/17 08:11:03;;;;;;;57.72;39.47;;;10.80;99.90;;;;;;4405853;32;20080;-71
2020/12/17 08:13:28;;;;;;;59.00;38.38;;;10.80;99.90;;;;;;4406786;32;20134;-71
2020/12/17 08:15:55;;;;;;;61.05;39.67;;;10.80;99.90;;;;;;4404813;32;20417;-71
2020/12/17 08:18:32;;;;;;;66.07;43.47;;;10.80;99.90;;;;;;4400540;32;20031;-71
2020/12/17 08:21:10;;;;;;;60.92;40.92;;;10.80;99.90;;;;;;4397599;32;20085;-71
2020/12/17 08:23:38;;;;;;;70.70;43.58;;;10.80;99.90;;;;;;4403968;32;20039;-71
2020/12/17 08:26:06;;;;;;;64.30;41.42;;;10.80;99.90;;;;;;4404395;32;20167;-71
2020/12/17 08:28:41;;;;;;;65.93;43.60;;;10.80;99.90;;;;;;4405317;32;20114;-71
2020/12/17 08:31:08;;;;;;;66.78;45.53;;;10.90;99.90;;;;;;4404523;32;20061;-71
2020/12/17 08:33:39;;;;;;;67.15;44.15;;;10.90;99.90;;;;;;4404454;32;20026;-72
2020/12/17 08:36:06;;;;;;;67.40;46.90;;;10.90;99.90;;;;;;4405746;32;20453;-71
2020/12/17 08:38:32;;;;;;;69.62;45.85;;;10.90;99.90;;;;;;4405389;32;20110;-71
2020/12/17 08:41:00;;;;;;;77.00;49.28;;;10.90;99.90;;;;;;4405302;32;20058;-71
2020/12/17 08:43:31;;;;;;;73.03;48.25;;;10.90;99.90;;;;;;4404660;32;20060;-72
2020/12/17 08:45:58;;;;;;;75.20;48.17;;;10.90;99.90;;;;;;4405322;32;20023;-71
2020/12/17 08:48:24;;;;;;;74.85;49.85;;;11.00;99.90;;;;;;4403397;32;20455;-71
2020/12/17 08:50:52;;;;;;;73.37;48.50;;;11.00;99.90;;;;;;4404365;32;20038;-71
2020/12/17 08:53:24;;;;;;;76.43;49.63;;;11.00;99.90;;;;;;4403962;32;20080;-72
2020/12/17 08:56:12;;;;;;;83.40;51.08;;;11.00;99.90;;;;;;4403082;32;20435;-72
2020/12/17 08:59:00;;;;;;;78.55;50.58;;;11.00;99.90;;;;;;4402647;32;20039;-71
2020/12/17 09:01:33;;;;;;;81.12;52.88;;;11.00;99.90;;;;;;4404116;32;20022;-70
2020/12/17 09:04:04;;;;;;;73.43;50.92;;;11.00;99.90;;;;;;4405678;32;20414;-70
2020/12/17 09:06:31;;;;;;;85.18;53.83;;;11.00;99.90;;;;;;4400919;32;20413;-71
2020/12/17 09:09:16;;;;;;;74.12;51.33;;;11.00;99.90;;;;;;4403555;32;20066;-71
2020/12/17 09:11:46;;;;;;;82.07;53.75;;;11.10;99.90;;;;;;4404648;32;20085;-71
2020/12/17 09:14:13;;;;;;;92.45;53.70;;;11.10;99.90;;;;;;4400668;32;20556;-71
2020/12/17 09:16:40;;;;;;;86.35;54.75;;;11.10;99.90;;;;;;4404474;32;20109;-72
2020/12/17 09:19:08;;;;;;;85.97;55.65;;;11.10;99.90;;;;;;4404442;32;20057;-71
2020/12/17 09:21:35;;;;;;;84.90;53.50;;;11.10;99.90;;;;;;4402018;32;20105;-72
2020/12/17 09:24:01;;;;;;;84.15;56.30;;;11.10;99.90;;;;;;4402413;32;20328;-72
2020/12/17 09:26:28;;;;;;;89.90;56.28;;;11.10;99.90;;;;;;4405214;32;20352;-72
2020/12/17 09:28:55;;;;;;;87.90;54.85;;;11.10;99.90;;;;;;4394753;32;20047;-72
2020/12/17 09:31:35;;;;;;;90.25;56.08;;;11.10;99.90;;;;;;4401642;32;20445;-71
2020/12/17 09:34:10;;;;;;;93.55;55.58;;;11.10;99.90;;;;;;4400210;32;20118;-71
2020/12/17 09:36:40;;;;;;;88.25;55.30;;;11.10;99.90;;;;;;4401273;32;20066;-72
2020/12/17 09:39:15;;;;;;;90.68;56.72;;;11.10;99.90;;;;;;4405312;32;20050;-71
2020/12/17 09:41:55;;;;;;;85.50;55.10;;;11.10;99.90;;;;;;4404947;32;20096;-71
2020/12/17 09:44:32;;;;;;;90.72;57.42;;;11.20;99.90;;;;;;4402889;32;20383;-71
2020/12/17 09:46:59;;;;;;;83.43;56.00;;;11.20;99.90;;;;;;4404033;32;20458;-70
2020/12/17 09:49:31;;;;;;;90.20;57.42;;;11.20;99.90;;;;;;4401563;32;20066;-71
2020/12/17 09:52:24;;;;;;;89.90;58.08;;;11.20;99.90;;;;;;4402902;32;20039;-71
2020/12/17 09:54:50;;;;;;;97.45;60.88;;;11.20;99.90;;;;;;4401619;32;20437;-71
2020/12/17 09:57:15;;;;;;;93.12;60.50;;;11.20;99.90;;;;;;4403024;32;20043;-71
2020/12/17 09:59:44;;;;;;;93.68;60.55;;;11.30;99.90;;;;;;4402420;32;20084;-72
2020/12/17 10:02:12;;;;;;;92.57;59.70;;;11.30;99.90;;;;;;4401236;32;20228;-71
2020/12/17 10:04:39;;;;;;;96.53;62.00;;;11.30;99.90;;;;;;4398029;32;20042;-71
2020/12/17 10:07:05;;;;;;;97.40;64.12;;;11.30;99.90;;;;;;4401263;32;20027;-71
2020/12/17 10:09:31;;;;;;;94.93;59.80;;;11.30;99.90;;;;;;4402250;32;20038;-71
2020/12/17 10:11:57;;;;;;;106.65;63.78;;;11.40;99.90;;;;;;4404167;32;20069;-71
2020/12/17 10:14:25;;;;;;;97.93;60.78;;;11.40;99.90;;;;;;4387700;32;20320;-71
2020/12/17 10:16:56;;;;;;;95.78;62.75;;;11.40;99.90;;;;;;4403204;32;20391;-71
2020/12/17 10:19:23;;;;;;;102.65;63.40;;;11.40;99.90;;;;;;4403301;32;20443;-72
2020/12/17 10:21:49;;;;;;;98.53;61.92;;;11.50;99.90;;;;;;4402822;32;20065;-72
2020/12/17 10:24:14;;;;;;;93.85;60.78;;;11.50;99.90;;;;;;4404123;32;20055;-72
2020/12/17 10:26:40;;;;;;;95.53;62.28;;;11.50;99.90;;;;;;4387937;32;20147;-71
2020/12/17 10:29:06;;;;;;;99.20;60.80;;;11.50;99.90;;;;;;4400940;32;20030;-71
2020/12/17 10:31:31;;;;;;;94.75;60.33;;;11.50;99.90;;;;;;4402555;32;20041;-71
2020/12/17 10:33:57;;;;;;;99.20;62.40;;;11.50;99.90;;;;;;4401389;32;20370;-71
2020/12/17 10:36:24;;;;;;;102.60;63.90;;;11.60;99.90;;;;;;4402580;32;20063;-71
2020/12/17 10:38:50;;;;;;;106.22;65.25;;;11.60;99.90;;;;;;4402915;32;20131;-72
2020/12/17 10:41:23;;;;;;;103.68;65.68;;;11.60;99.90;;;;;;4402662;32;20080;-71
2020/12/17 10:43:49;;;;;;;113.43;69.78;;;11.60;99.90;;;;;;4400867;32;20074;-72
2020/12/17 10:46:15;;;;;;;104.90;66.87;;;11.60;99.90;;;;;;4402612;32;20077;-72
2020/12/17 10:48:41;;;;;;;102.18;67.78;;;11.60;99.90;;;;;;4402570;32;20072;-72
2020/12/17 10:51:06;;;;;;;106.87;68.55;;;11.70;99.90;;;;;;4402775;32;20102;-71
2020/12/17 10:53:32;;;;;;;102.85;63.03;;;11.60;99.90;;;;;;4404083;32;20039;-71
2020/12/17 10:55:58;;;;;;;109.30;67.15;;;11.70;99.90;;;;;;4402238;32;20145;-72
2020/12/17 10:58:24;;;;;;;107.05;66.90;;;11.70;99.90;;;;;;4403900;32;20026;-71
2020/12/17 11:00:49;;;;;;;106.65;66.78;;;11.70;99.90;;;;;;4401380;32;20453;-70
2020/12/17 11:03:15;;;;;;;98.90;65.47;;;11.70;99.90;;;;;;4404331;32;20555;-72
2020/12/17 11:05:40;;;;;;;105.00;66.72;;;11.70;99.90;;;;;;4400779;32;20053;-70
2020/12/17 11:08:06;;;;;;;104.25;67.80;;;11.70;99.90;;;;;;4400890;32;20042;-71
2020/12/17 11:10:32;;;;;;;100.20;65.28;;;11.80;99.90;;;;;;4396385;32;20045;-72
2020/12/17 11:12:57;;;;;;;100.75;66.75;;;11.80;99.90;;;;;;4399053;32;20081;-71
2020/12/17 11:15:23;;;;;;;99.22;65.37;;;11.80;99.90;;;;;;4400788;32;20411;-72
2020/12/17 11:17:49;;;;;;;99.70;68.05;;;11.80;99.90;;;;;;4396376;32;20039;-72
2020/12/17 11:20:17;;;;;;;102.40;65.45;;;11.90;99.90;;;;;;4383223;32;20066;-72
2020/12/17 11:22:42;;;;;;;104.90;66.30;;;11.90;99.90;;;;;;4403552;32;20065;-72
2020/12/17 11:25:08;;;;;;;106.22;67.53;;;11.90;99.90;;;;;;4402713;32;20023;-72
2020/12/17 11:27:34;;;;;;;103.10;69.85;;;11.90;99.90;;;;;;4390624;32;20103;-71
2020/12/17 11:29:59;;;;;;;108.80;67.93;;;11.90;99.90;;;;;;4402692;32;20089;-73
2020/12/17 11:32:25;;;;;;;108.75;70.47;;;11.90;99.90;;;;;;4400803;32;20086;-71
2020/12/17 11:34:51;;;;;;;104.72;66.18;;;12.00;99.90;;;;;;4403237;32;20038;-72
2020/12/17 11:37:17;;;;;;;107.05;68.20;;;12.00;99.90;;;;;;4397507;32;20437;-71
2020/12/17 11:39:44;;;;;;;99.10;66.72;;;12.00;99.90;;;;;;4405309;32;20039;-72
2020/12/17 11:42:09;;;;;;;110.15;70.25;;;12.00;99.90;;;;;;4404258;32;20088;-71
2020/12/17 11:44:35;;;;;;;109.35;70.05;;;12.00;99.90;;;;;;4405149;32;20109;-72
2020/12/17 11:47:01;;;;;;;114.68;70.82;;;12.10;99.90;;;;;;4398500;32;20042;-71
2020/12/17 11:49:26;;;;;;;111.07;71.50;;;12.10;99.90;;;;;;4403836;32;20070;-72
2020/12/17 11:51:52;;;;;;;109.80;70.57;;;12.10;99.90;;;;;;4404041;32;20058;-72
2020/12/17 11:54:19;;;;;;;113.15;72.03;;;12.10;99.90;;;;;;4404201;32;20077;-71
2020/12/17 11:56:49;;;;;;;115.65;72.55;;;12.10;99.90;;;;;;4402352;32;20074;-71
2020/12/17 11:59:16;;;;;;;117.28;74.57;;;12.10;99.90;;;;;;4404532;32;20085;-71
2020/12/17 12:01:42;;;;;;;112.85;74.97;;;12.10;99.90;;;;;;4405293;32;20018;-71
2020/12/17 12:04:09;;;;;;;115.43;72.43;;;12.10;99.90;;;;;;4404863;32;20681;-73
2020/12/17 12:06:35;;;;;;;135.60;79.28;;;12.10;99.90;;;;;;4407348;32;20058;-71
2020/12/17 12:09:01;;;;;;;119.75;76.72;;;12.20;99.90;;;;;;4406724;32;20073;-71
2020/12/17 12:11:26;;;;;;;113.28;74.53;;;12.20;99.90;;;;;;4401196;32;20380;-71
2020/12/17 12:13:53;;;;;;;119.70;76.80;;;12.20;99.90;;;;;;4406068;32;20110;-71
2020/12/17 12:16:19;;;;;;;118.95;73.85;;;12.20;99.90;;;;;;4394988;32;20058;-72
2020/12/17 12:18:44;;;;;;;117.45;75.20;;;12.20;99.90;;;;;;4404996;32;20071;-71
2020/12/17 12:21:12;;;;;;;118.35;75.78;;;12.20;99.90;;;;;;4405297;32;20043;-71
2020/12/17 12:23:40;;;;;;;102.05;67.93;;;12.30;99.90;;;;;;4391156;32;20549;-71
2020/12/17 12:26:06;;;;;;;107.40;70.65;;;12.30;99.90;;;;;;4399515;32;20365;-71
2020/12/17 12:28:32;;;;;;;103.68;66.32;;;12.30;99.90;;;;;;4406225;32;20065;-71
2020/12/17 12:30:57;;;;;;;101.68;65.03;;;12.40;99.90;;;;;;4405600;32;20065;-71
2020/12/17 12:33:23;;;;;;;107.03;66.22;;;12.40;99.90;;;;;;4389162;32;20023;-71
2020/12/17 12:35:49;;;;;;;107.12;68.30;;;12.40;99.90;;;;;;4404549;32;20023;-71